createdAt,value
2022-11-29T00:01:25.153Z,10.35
2022-11-29T00:03:52.498Z,10.95
2022-11-29T00:06:21.883Z,10.68
2022-11-29T00:08:49.482Z,10.93
2022-11-29T00:11:23.068Z,11.30
2022-11-29T00:13:49.610Z,11.20
2022-11-29T00:16:16.261Z,11.50
2022-11-29T00:18:42.848Z,11.32
2022-11-29T00:21:09.841Z,11.15
2022-11-29T00:23:36.408Z,10.82
2022-11-29T00:26:04.940Z,10.65
2022-11-29T00:28:31.626Z,9.77
2022-11-29T00:30:58.266Z,9.95
2022-11-29T00:33:24.888Z,8.82
2022-11-29T00:35:51.461Z,8.48
2022-11-29T00:38:17.996Z,8.65
2022-11-29T00:40:44.563Z,9.02
2022-11-29T00:43:11.092Z,7.25
2022-11-29T00:45:37.715Z,8.13
2022-11-29T00:48:04.492Z,8.68
2022-11-29T00:50:31.064Z,7.38
2022-11-29T00:52:57.622Z,7.88
2022-11-29T00:55:24.221Z,7.93
2022-11-29T00:57:53.693Z,8.02
2022-11-29T01:00:20.596Z,7.50
2022-11-29T01:02:47.235Z,7.82
2022-11-29T01:05:13.889Z,8.93
2022-11-29T01:07:40.497Z,7.57
2022-11-29T01:10:07.655Z,8.38
2022-11-29T01:12:38.800Z,8.00
2022-11-29T01:15:10.177Z,7.53
2022-11-29T01:17:38.982Z,8.30
2022-11-29T01:20:08.965Z,8.85
2022-11-29T01:22:36.924Z,9.07
2022-11-29T01:25:05.029Z,7.18
2022-11-29T01:27:32.373Z,8.80
2022-11-29T01:29:59.359Z,6.85
2022-11-29T01:32:26.379Z,7.60
2022-11-29T01:34:53.362Z,8.32
2022-11-29T01:37:20.445Z,7.10
2022-11-29T01:39:47.375Z,7.35
2022-11-29T01:42:15.317Z,7.47
2022-11-29T01:44:45.069Z,7.15
2022-11-29T01:47:12.493Z,7.57
2022-11-29T01:49:45.366Z,7.60
2022-11-29T01:52:19.457Z,7.85
2022-11-29T01:54:49.485Z,8.98
2022-11-29T01:57:16.579Z,9.02
2022-11-29T01:59:46.908Z,9.00
2022-11-29T02:02:18.236Z,9.40
2022-11-29T02:04:46.921Z,9.73
2022-11-29T02:07:14.280Z,8.63
2022-11-29T02:09:40.944Z,8.70
2022-11-29T02:12:16.427Z,8.13
2022-11-29T02:15:07.169Z,7.53
2022-11-29T02:17:43.324Z,7.30
2022-11-29T02:20:35.583Z,7.18
2022-11-29T02:23:40.487Z,7.47
2022-11-29T02:26:34.065Z,6.95
2022-11-29T02:29:24.211Z,6.78
2022-11-29T02:32:15.048Z,6.93
2022-11-29T02:34:59.232Z,7.47
2022-11-29T02:37:31.284Z,8.73
2022-11-29T02:40:23.709Z,7.95
2022-11-29T02:43:15.281Z,7.93
2022-11-29T02:46:05.716Z,7.55
2022-11-29T02:48:51.224Z,8.63
2022-11-29T02:51:47.838Z,7.82
2022-11-29T02:54:23.845Z,9.45
2022-11-29T02:56:56.683Z,7.65
2022-11-29T02:59:52.600Z,8.43
2022-11-29T03:02:37.769Z,6.53
2022-11-29T03:05:38.189Z,7.60
2022-11-29T03:08:26.739Z,7.00
2022-11-29T03:11:20.683Z,6.60
2022-11-29T03:14:05.279Z,6.97
2022-11-29T03:17:20.146Z,7.05
2022-11-29T03:20:09.447Z,6.03
2022-11-29T03:23:02.478Z,6.93
2022-11-29T03:25:36.253Z,8.95
2022-11-29T03:28:46.070Z,7.20
2022-11-29T03:31:31.829Z,7.13
2022-11-29T03:34:17.191Z,8.38
2022-11-29T03:36:55.816Z,6.90
2022-11-29T03:39:32.900Z,8.23
2022-11-29T03:42:06.584Z,7.25
2022-11-29T03:44:41.425Z,7.93
2022-11-29T03:47:19.485Z,9.63
2022-11-29T03:49:56.408Z,8.63
2022-11-29T03:52:38.171Z,8.25
2022-11-29T03:55:43.698Z,8.27
2022-11-29T03:58:29.889Z,10.02
2022-11-29T04:01:14.703Z,10.25
2022-11-29T04:04:09.300Z,10.73
2022-11-29T04:06:46.868Z,9.55
2022-11-29T04:09:32.036Z,11.75
2022-11-29T04:12:15.600Z,9.32
2022-11-29T04:15:31.180Z,11.43
2022-11-29T04:18:37.010Z,11.82
2022-11-29T04:21:24.997Z,12.35
2022-11-29T04:24:38.606Z,11.60
2022-11-29T04:27:27.349Z,12.07
2022-11-29T04:30:24.631Z,13.82
2022-11-29T04:33:19.799Z,14.90
2022-11-29T04:36:15.205Z,17.92
2022-11-29T04:38:48.023Z,13.23
2022-11-29T04:41:36.835Z,16.45
2022-11-29T04:44:42.243Z,16.10
2022-11-29T04:47:24.701Z,17.80
2022-11-29T04:50:06.932Z,16.10
2022-11-29T04:53:04.599Z,16.75
2022-11-29T04:55:58.872Z,19.70
2022-11-29T04:58:31.592Z,16.88
2022-11-29T05:01:07.870Z,21.02
2022-11-29T05:03:47.001Z,19.98
2022-11-29T05:06:32.946Z,20.42
2022-11-29T05:09:07.876Z,20.30
2022-11-29T05:12:08.956Z,21.15
2022-11-29T05:14:50.022Z,18.75
2022-11-29T05:17:25.403Z,18.48
2022-11-29T05:20:12.942Z,22.50
2022-11-29T05:22:58.319Z,21.60
2022-11-29T05:25:37.182Z,24.25
2022-11-29T05:28:24.654Z,22.33
2022-11-29T05:31:20.937Z,24.52
2022-11-29T05:34:07.611Z,22.08
2022-11-29T05:36:46.412Z,22.13
2022-11-29T05:39:38.251Z,21.52
2022-11-29T05:42:14.005Z,21.02
2022-11-29T05:44:52.299Z,22.92
2022-11-29T05:47:31.533Z,23.95
2022-11-29T05:50:23.117Z,24.10
2022-11-29T05:53:27.442Z,23.42
2022-11-29T05:56:34.202Z,21.80
2022-11-29T05:59:07.676Z,25.17
2022-11-29T06:01:34.263Z,23.00
2022-11-29T06:04:15.012Z,26.17
2022-11-29T06:06:48.672Z,25.77
2022-11-29T06:09:33.707Z,23.80
2022-11-29T06:12:06.666Z,23.55
2022-11-29T06:14:52.923Z,24.23
2022-11-29T06:17:57.124Z,25.40
2022-11-29T06:20:33.090Z,26.45
2022-11-29T06:23:29.124Z,28.17
2022-11-29T06:26:24.256Z,25.10
2022-11-29T06:29:25.535Z,30.30
2022-11-29T06:32:08.438Z,27.13
2022-11-29T06:34:43.486Z,29.05
2022-11-29T06:37:27.884Z,32.25
2022-11-29T06:39:55.553Z,29.42
2022-11-29T06:42:22.137Z,29.38
2022-11-29T06:44:49.132Z,31.08
2022-11-29T06:47:42.364Z,32.60
2022-11-29T06:50:22.460Z,34.70
2022-11-29T06:52:58.330Z,37.70
2022-11-29T06:55:35.989Z,34.00
2022-11-29T06:58:22.531Z,33.13
2022-11-29T07:00:52.271Z,37.17
2022-11-29T07:03:21.668Z,36.90
2022-11-29T07:05:48.566Z,35.35
2022-11-29T07:08:23.799Z,33.95
2022-11-29T07:10:53.921Z,36.15
2022-11-29T07:13:21.128Z,35.03
2022-11-29T07:16:08.519Z,34.08
2022-11-29T07:18:51.940Z,36.60
2022-11-29T07:21:49.325Z,34.13
2022-11-29T07:24:54.253Z,37.17
2022-11-29T07:27:43.853Z,35.10
2022-11-29T07:30:20.842Z,35.53
2022-11-29T07:33:27.833Z,33.30
2022-11-29T07:35:54.388Z,33.22
2022-11-29T07:38:23.812Z,36.15
2022-11-29T07:40:50.323Z,34.13
2022-11-29T07:43:31.745Z,36.97
2022-11-29T07:45:59.528Z,35.10
2022-11-29T07:48:26.885Z,37.25
2022-11-29T07:50:55.928Z,38.83
2022-11-29T07:53:24.245Z,36.37
2022-11-29T07:55:51.371Z,37.08
2022-11-29T07:58:18.408Z,33.20
2022-11-29T08:00:45.720Z,40.75
2022-11-29T08:03:12.899Z,30.90
2022-11-29T08:05:40.245Z,35.95
2022-11-29T08:08:07.268Z,35.13
2022-11-29T08:10:35.453Z,34.50
2022-11-29T08:13:02.201Z,41.67
2022-11-29T08:15:28.972Z,36.72
2022-11-29T08:17:55.656Z,42.10
2022-11-29T08:20:22.273Z,42.15
2022-11-29T08:22:56.582Z,42.55
2022-11-29T08:25:23.960Z,42.70
2022-11-29T08:27:51.607Z,45.35
2022-11-29T08:30:21.884Z,48.10
2022-11-29T08:32:51.598Z,44.00
2022-11-29T08:35:20.209Z,44.47
2022-11-29T08:37:47.090Z,47.20
2022-11-29T08:40:14.650Z,47.97
2022-11-29T08:42:41.273Z,44.47
2022-11-29T08:45:09.347Z,47.25
2022-11-29T08:47:36.926Z,43.47
2022-11-29T08:50:14.142Z,43.40
2022-11-29T08:53:05.453Z,45.65
2022-11-29T08:55:40.603Z,38.85
2022-11-29T08:58:10.348Z,39.17
2022-11-29T09:00:38.079Z,39.95
2022-11-29T09:03:25.459Z,41.25
2022-11-29T09:05:52.329Z,40.28
2022-11-29T09:08:19.752Z,37.10
2022-11-29T09:10:47.295Z,41.92
2022-11-29T09:13:14.085Z,34.80
2022-11-29T09:15:42.417Z,34.10
2022-11-29T09:18:09.234Z,33.55
2022-11-29T09:20:35.963Z,39.75
2022-11-29T09:23:02.682Z,36.88
2022-11-29T09:25:29.271Z,34.67
2022-11-29T09:28:01.170Z,37.55
2022-11-29T09:30:30.484Z,33.28
2022-11-29T09:33:04.824Z,33.08
2022-11-29T09:35:32.953Z,35.63
2022-11-29T09:38:00.120Z,32.67
2022-11-29T09:41:08.140Z,35.88
2022-11-29T09:43:40.769Z,34.85
2022-11-29T09:46:31.472Z,36.53
2022-11-29T09:49:23.938Z,35.58
2022-11-29T09:52:22.046Z,35.20
2022-11-29T09:55:22.414Z,39.65
2022-11-29T09:57:50.532Z,36.60
2022-11-29T10:00:22.105Z,36.50
2022-11-29T10:02:58.189Z,35.55
2022-11-29T10:05:31.338Z,36.35
2022-11-29T10:08:03.258Z,35.15
2022-11-29T10:10:40.721Z,36.28
2022-11-29T10:13:34.169Z,35.60
2022-11-29T10:16:14.754Z,37.65
2022-11-29T10:18:59.845Z,36.38
2022-11-29T10:21:33.130Z,38.63
2022-11-29T10:24:04.328Z,36.92
2022-11-29T10:26:35.115Z,36.22
2022-11-29T10:29:02.208Z,34.88
2022-11-29T10:31:34.222Z,34.50
2022-11-29T10:34:10.183Z,34.90
2022-11-29T10:36:36.725Z,35.85
2022-11-29T10:39:14.471Z,36.33
2022-11-29T10:41:41.402Z,31.63
2022-11-29T10:44:13.978Z,35.88
2022-11-29T10:46:41.185Z,39.13
2022-11-29T10:49:14.588Z,35.88
2022-11-29T10:51:41.268Z,34.38
2022-11-29T10:54:29.951Z,35.00
2022-11-29T10:57:01.562Z,36.38
2022-11-29T10:59:33.246Z,35.60
2022-11-29T11:02:01.964Z,38.40
2022-11-29T11:04:44.399Z,36.90
2022-11-29T11:07:36.072Z,34.55
2022-11-29T11:10:22.290Z,38.38
2022-11-29T11:15:29.205Z,33.55
2022-11-29T11:18:04.982Z,33.38
2022-11-29T11:20:54.217Z,32.83
2022-11-29T11:23:28.419Z,31.00
2022-11-29T11:26:05.168Z,37.05
2022-11-29T11:28:42.991Z,30.75
2022-11-29T11:31:11.627Z,30.05
2022-11-29T11:33:45.661Z,31.38
2022-11-29T11:36:19.222Z,32.88
2022-11-29T11:39:09.952Z,26.50
2022-11-29T11:41:59.587Z,30.27
2022-11-29T11:44:49.198Z,27.48
2022-11-29T11:47:29.676Z,25.92
2022-11-29T11:50:08.321Z,30.88
2022-11-29T11:52:50.076Z,30.80
2022-11-29T11:55:32.295Z,27.65
2022-11-29T11:58:06.196Z,28.88
2022-11-29T12:01:03.360Z,28.10
2022-11-29T12:03:37.191Z,29.48
2022-11-29T12:06:16.459Z,25.52
2022-11-29T12:08:44.821Z,27.23
2022-11-29T12:11:15.010Z,28.40
2022-11-29T12:13:46.900Z,27.48
2022-11-29T12:16:28.218Z,25.38
2022-11-29T12:19:02.610Z,26.98
2022-11-29T12:21:38.620Z,25.65
2022-11-29T12:24:21.712Z,24.10
2022-11-29T12:26:56.981Z,24.55
2022-11-29T12:29:28.523Z,26.08
2022-11-29T12:32:05.693Z,23.70
2022-11-29T12:34:50.961Z,24.73
2022-11-29T12:37:26.764Z,24.67
2022-11-29T12:40:22.417Z,24.02
2022-11-29T12:43:21.008Z,23.08
2022-11-29T12:46:26.095Z,24.58
2022-11-29T12:49:15.917Z,24.58
2022-11-29T12:51:53.806Z,23.98
2022-11-29T12:54:48.821Z,25.05
2022-11-29T12:57:24.094Z,25.67
2022-11-29T13:00:14.070Z,26.33
2022-11-29T13:05:39.714Z,26.75
2022-11-29T13:08:34.009Z,26.35
2022-11-29T13:11:18.495Z,25.80
2022-11-29T13:14:40.951Z,29.13
2022-11-29T13:16:59.625Z,26.58
2022-11-29T13:19:43.941Z,25.42
2022-11-29T13:22:14.775Z,26.75
2022-11-29T13:25:04.197Z,26.88
2022-11-29T13:27:35.101Z,26.40
2022-11-29T13:30:02.333Z,24.40
2022-11-29T13:32:51.531Z,25.10
2022-11-29T13:35:30.158Z,25.17
2022-11-29T13:38:15.480Z,21.40
2022-11-29T13:41:02.353Z,23.13
2022-11-29T13:43:40.991Z,22.63
2022-11-29T13:46:33.177Z,19.52
2022-11-29T13:48:59.781Z,21.42
2022-11-29T13:51:26.402Z,22.20
2022-11-29T13:53:55.256Z,21.73
2022-11-29T13:56:32.860Z,22.52
2022-11-29T13:59:01.144Z,21.80
2022-11-29T14:01:28.604Z,21.90
2022-11-29T14:04:18.575Z,22.73
2022-11-29T14:09:27.159Z,20.33
2022-11-29T14:12:17.368Z,22.08
2022-11-29T14:15:01.735Z,19.67
2022-11-29T14:17:34.024Z,20.52
2022-11-29T14:20:22.517Z,23.75
2022-11-29T14:23:04.585Z,22.63
2022-11-29T14:28:21.612Z,24.20
2022-11-29T14:30:54.037Z,24.98
2022-11-29T14:33:35.950Z,24.60
2022-11-29T14:36:14.786Z,25.45
2022-11-29T14:38:47.322Z,26.65
2022-11-29T14:41:24.065Z,26.70
2022-11-29T14:44:03.453Z,25.60
2022-11-29T14:46:32.244Z,27.80
2022-11-29T14:49:01.551Z,28.75
2022-11-29T14:51:31.307Z,26.40
2022-11-29T14:54:19.545Z,27.80
2022-11-29T14:56:47.252Z,25.45
2022-11-29T14:59:46.607Z,24.63
2022-11-29T15:02:25.565Z,24.58
2022-11-29T15:04:55.699Z,26.05
2022-11-29T15:07:30.364Z,26.60
2022-11-29T15:10:01.090Z,28.67
2022-11-29T15:12:30.131Z,30.63
2022-11-29T15:15:37.878Z,29.90
2022-11-29T15:18:22.612Z,30.67
2022-11-29T15:21:01.345Z,31.60
2022-11-29T15:23:28.010Z,33.05
2022-11-29T15:26:00.298Z,32.85
2022-11-29T15:28:29.024Z,30.45
2022-11-29T15:31:14.933Z,33.83
2022-11-29T15:33:51.041Z,33.45
2022-11-29T15:36:20.855Z,34.22
2022-11-29T15:41:19.454Z,32.72
2022-11-29T15:46:20.639Z,33.67
2022-11-29T15:48:47.281Z,33.90
2022-11-29T15:51:35.785Z,31.17
2022-11-29T15:54:13.042Z,35.53
2022-11-29T15:56:56.184Z,36.20
2022-11-29T15:59:36.127Z,34.63
2022-11-29T16:04:42.183Z,35.17
2022-11-29T16:07:12.112Z,36.53
2022-11-29T16:10:04.327Z,39.20
2022-11-29T16:12:31.741Z,37.10
2022-11-29T16:15:00.396Z,34.10
2022-11-29T16:17:30.936Z,35.63
2022-11-29T16:20:18.897Z,36.95
2022-11-29T16:22:45.776Z,36.10
2022-11-29T16:25:19.627Z,36.15
2022-11-29T16:27:46.598Z,35.63
2022-11-29T16:30:25.371Z,35.60
2022-11-29T16:32:59.063Z,32.63
2022-11-29T16:35:29.250Z,33.63
2022-11-29T16:37:56.517Z,36.80
2022-11-29T16:40:26.438Z,38.92
2022-11-29T16:45:42.725Z,36.35
2022-11-29T16:48:26.230Z,35.42
2022-11-29T16:51:11.213Z,38.28
2022-11-29T16:53:42.055Z,38.22
2022-11-29T16:56:11.900Z,39.70
2022-11-29T16:59:25.137Z,37.47
2022-11-29T17:01:28.791Z,39.95
2022-11-29T17:03:57.475Z,44.10
2022-11-29T17:06:25.762Z,40.22
2022-11-29T17:08:54.408Z,39.97
2022-11-29T17:11:21.195Z,40.85
2022-11-29T17:13:49.015Z,40.05
2022-11-29T17:16:17.776Z,40.92
2022-11-29T17:18:45.198Z,40.70
2022-11-29T17:21:23.112Z,41.97
2022-11-29T17:23:50.119Z,43.35
2022-11-29T17:26:17.223Z,43.20
2022-11-29T17:28:45.433Z,40.05
2022-11-29T17:31:14.035Z,45.08
2022-11-29T17:33:40.763Z,43.92
2022-11-29T17:36:09.200Z,41.67
2022-11-29T17:38:36.043Z,43.30
2022-11-29T17:41:09.824Z,42.63
2022-11-29T17:43:37.189Z,40.80
2022-11-29T17:46:22.614Z,36.88
2022-11-29T17:48:50.593Z,36.55
2022-11-29T17:51:50.059Z,36.28
2022-11-29T17:54:08.041Z,37.20
2022-11-29T17:56:34.612Z,38.22
2022-11-29T17:59:03.370Z,37.47
2022-11-29T18:01:32.573Z,35.22
2022-11-29T18:04:01.664Z,34.25
2022-11-29T18:06:30.948Z,36.15
2022-11-29T18:08:59.729Z,36.97
2022-11-29T18:11:37.513Z,36.53
2022-11-29T18:14:11.524Z,34.88
2022-11-29T18:16:38.352Z,34.85
2022-11-29T18:19:07.479Z,35.00
2022-11-29T18:21:34.939Z,34.53
2022-11-29T18:24:03.421Z,37.10
2022-11-29T18:26:31.074Z,34.47
2022-11-29T18:28:59.061Z,31.75
2022-11-29T18:31:28.343Z,31.77
2022-11-29T18:34:00.806Z,30.30
2022-11-29T18:36:30.425Z,31.95
2022-11-29T18:39:05.963Z,30.02
2022-11-29T18:41:33.138Z,32.20
2022-11-29T18:44:12.222Z,31.50
2022-11-29T18:46:41.480Z,31.08
2022-11-29T18:49:09.821Z,31.00
2022-11-29T18:51:38.221Z,29.33
2022-11-29T18:54:05.962Z,33.60
2022-11-29T18:56:34.419Z,27.88
2022-11-29T18:59:03.677Z,32.00
2022-11-29T19:01:33.900Z,30.15
2022-11-29T19:04:01.945Z,26.50
2022-11-29T19:06:38.542Z,27.63
2022-11-29T19:09:11.406Z,27.50
2022-11-29T19:11:38.130Z,25.90
2022-11-29T19:14:11.029Z,25.90
2022-11-29T19:16:39.433Z,25.80
2022-11-29T19:19:06.397Z,25.33
2022-11-29T19:21:34.485Z,26.67
2022-11-29T19:24:04.000Z,25.50
2022-11-29T19:26:32.328Z,23.23
2022-11-29T19:29:00.730Z,23.63
2022-11-29T19:31:28.357Z,22.83
2022-11-29T19:33:55.741Z,24.02
2022-11-29T19:36:23.907Z,25.15
2022-11-29T19:38:53.682Z,27.38
2022-11-29T19:41:34.294Z,23.52
2022-11-29T19:44:06.831Z,27.33
2022-11-29T19:46:38.656Z,25.02
2022-11-29T19:49:07.156Z,27.25
2022-11-29T19:51:34.328Z,26.40
2022-11-29T19:54:04.531Z,25.65
2022-11-29T19:56:31.879Z,25.00
2022-11-29T19:59:01.427Z,24.10
2022-11-29T20:01:36.215Z,26.25
2022-11-29T20:04:07.288Z,22.92
2022-11-29T20:06:34.428Z,21.95
2022-11-29T20:09:01.770Z,22.30
2022-11-29T20:11:28.423Z,23.75
2022-11-29T20:14:00.317Z,26.45
2022-11-29T20:16:28.074Z,25.75
2022-11-29T20:18:55.327Z,26.05
2022-11-29T20:21:27.049Z,27.45
2022-11-29T20:23:58.460Z,23.38
2022-11-29T20:26:25.376Z,24.15
2022-11-29T20:28:52.063Z,24.08
2022-11-29T20:31:22.589Z,22.88
2022-11-29T20:33:51.672Z,27.45
2022-11-29T20:36:24.280Z,26.03
2022-11-29T20:39:12.669Z,23.10
2022-11-29T20:41:48.485Z,24.17
2022-11-29T20:44:20.818Z,25.83
2022-11-29T20:46:47.583Z,26.67
2022-11-29T20:49:15.089Z,28.38
2022-11-29T20:51:55.553Z,27.10
2022-11-29T20:54:22.234Z,27.60
2022-11-29T20:56:48.858Z,29.02
2022-11-29T20:59:15.381Z,26.92
2022-11-29T21:01:42.043Z,27.83
2022-11-29T21:04:08.697Z,32.72
2022-11-29T21:06:38.908Z,29.50
2022-11-29T21:09:06.100Z,27.17
2022-11-29T21:11:32.998Z,27.60
2022-11-29T21:14:03.711Z,28.58
2022-11-29T21:16:31.943Z,26.90
2022-11-29T21:19:01.099Z,28.27
2022-11-29T21:21:39.732Z,28.45
2022-11-29T21:24:23.211Z,26.73
2022-11-29T21:26:51.388Z,28.08
2022-11-29T21:29:24.418Z,25.88
2022-11-29T21:31:53.348Z,27.52
2022-11-29T21:34:20.754Z,28.92
2022-11-29T21:36:55.580Z,26.67
2022-11-29T21:39:24.263Z,24.67
2022-11-29T21:41:50.856Z,28.88
2022-11-29T21:44:17.387Z,25.80
2022-11-29T21:46:43.981Z,23.98
2022-11-29T21:49:10.610Z,25.15
2022-11-29T21:51:37.193Z,25.08
2022-11-29T21:54:03.886Z,23.98
2022-11-29T21:56:30.535Z,22.40
2022-11-29T21:58:57.144Z,26.42
2022-11-29T22:01:23.840Z,26.42
2022-11-29T22:03:53.631Z,26.02
2022-11-29T22:06:23.953Z,24.83
2022-11-29T22:08:50.553Z,23.73
2022-11-29T22:11:30.794Z,25.55
2022-11-29T22:14:15.029Z,21.67
2022-11-29T22:16:43.460Z,23.17
2022-11-29T22:19:14.445Z,23.95
2022-11-29T22:21:42.970Z,21.40
2022-11-29T22:24:10.939Z,21.48
2022-11-29T22:26:37.741Z,20.85
2022-11-29T22:29:05.642Z,24.55
2022-11-29T22:31:32.974Z,21.45
2022-11-29T22:33:59.549Z,24.30
2022-11-29T22:36:26.271Z,22.67
2022-11-29T22:38:52.927Z,22.38
2022-11-29T22:41:19.993Z,21.63
2022-11-29T22:43:46.565Z,22.90
2022-11-29T22:46:13.167Z,20.52
2022-11-29T22:48:40.892Z,22.27
2022-11-29T22:51:11.641Z,22.17
2022-11-29T22:53:40.412Z,23.08
2022-11-29T22:56:10.294Z,23.02
2022-11-29T23:01:11.878Z,20.42
2022-11-29T23:03:48.084Z,22.88
2022-11-29T23:06:17.157Z,23.63
2022-11-29T23:08:45.270Z,23.90
2022-11-29T23:11:14.839Z,24.33
2022-11-29T23:13:43.104Z,25.27
2022-11-29T23:16:12.815Z,25.63
2022-11-29T23:18:39.948Z,28.40
2022-11-29T23:21:08.112Z,21.75
2022-11-29T23:23:35.365Z,25.67
2022-11-29T23:26:02.517Z,25.27
2022-11-29T23:28:29.915Z,25.70
2022-11-29T23:30:58.037Z,27.15
2022-11-29T23:33:24.974Z,25.77
2022-11-29T23:35:58.400Z,27.58
2022-11-29T23:38:24.939Z,26.85
2022-11-29T23:40:51.620Z,26.33
2022-11-29T23:43:18.144Z,26.48
2022-11-29T23:45:44.732Z,28.85
2022-11-29T23:48:11.281Z,28.70
2022-11-29T23:50:37.925Z,27.70
2022-11-29T23:53:04.759Z,37.08
2022-11-29T23:55:31.328Z,28.73
2022-11-29T23:58:01.134Z,28.77
